sensor_id;sensor_type;location;lat;lon;timestamp;P1;durP1;ratioP1;P2;durP2;ratioP2
7211;SDS011;3647;48.792;9.802;2023-12-28T00:02:04;14.50;;;8.53;;
7211;SDS011;3647;48.792;9.802;2023-12-28T00:04:32;10.50;;;8.10;;
7211;SDS011;3647;48.792;9.802;2023-12-28T00:06:59;15.00;;;9.27;;
7211;SDS011;3647;48.792;9.802;2023-12-28T00:09:28;10.80;;;7.57;;
7211;SDS011;3647;48.792;9.802;2023-12-28T00:11:54;10.17;;;8.30;;
7211;SDS011;3647;48.792;9.802;2023-12-28T00:14:21;10.70;;;7.57;;
7211;SDS011;3647;48.792;9.802;2023-12-28T00:16:48;15.00;;;8.50;;
7211;SDS011;3647;48.792;9.802;2023-12-28T00:19:17;15.03;;;8.40;;
7211;SDS011;3647;48.792;9.802;2023-12-28T00:21:46;12.70;;;8.37;;
7211;SDS011;3647;48.792;9.802;2023-12-28T00:24:13;13.23;;;8.47;;
7211;SDS011;3647;48.792;9.802;2023-12-28T05:35:38;6.77;;;5.97;;
7211;SDS011;3647;48.792;9.802;2023-12-28T05:38:07;6.23;;;5.63;;
7211;SDS011;3647;48.792;9.802;2023-12-28T05:40:34;6.87;;;6.10;;
7211;SDS011;3647;48.792;9.802;2023-12-28T05:43:02;6.20;;;5.40;;
7211;SDS011;3647;48.792;9.802;2023-12-28T05:45:29;9.10;;;6.67;;
7211;SDS011;3647;48.792;9.802;2023-12-28T05:47:56;6.53;;;5.80;;
7211;SDS011;3647;48.792;9.802;2023-12-28T05:50:23;8.33;;;7.10;;
7211;SDS011;3647;48.792;9.802;2023-12-28T05:52:51;9.10;;;6.43;;
7211;SDS011;3647;48.792;9.802;2023-12-28T05:55:17;9.77;;;6.27;;
7211;SDS011;3647;48.792;9.802;2023-12-28T05:57:45;7.30;;;5.90;;
7211;SDS011;3647;48.792;9.802;2023-12-28T06:00:12;11.37;;;7.37;;
7211;SDS011;3647;48.792;9.802;2023-12-28T06:02:41;8.93;;;7.73;;
7211;SDS011;3647;48.792;9.802;2023-12-28T06:05:08;9.87;;;7.40;;
7211;SDS011;3647;48.792;9.802;2023-12-28T06:07:35;17.07;;;10.20;;
7211;SDS011;3647;48.792;9.802;2023-12-28T06:10:04;9.10;;;7.93;;
7211;SDS011;3647;48.792;9.802;2023-12-28T06:12:31;9.83;;;7.97;;
7211;SDS011;3647;48.792;9.802;2023-12-28T06:14:58;9.90;;;7.93;;
7211;SDS011;3647;48.792;9.802;2023-12-28T06:17:26;11.77;;;8.47;;
7211;SDS011;3647;48.792;9.802;2023-12-28T06:19:53;17.00;;;11.13;;
7211;SDS011;3647;48.792;9.802;2023-12-28T06:22:19;12.60;;;9.37;;
7211;SDS011;3647;48.792;9.802;2023-12-28T06:24:46;9.53;;;7.00;;
7211;SDS011;3647;48.792;9.802;2023-12-28T06:27:14;9.47;;;7.03;;
7211;SDS011;3647;48.792;9.802;2023-12-28T06:29:41;8.57;;;6.93;;
7211;SDS011;3647;48.792;9.802;2023-12-28T06:32:09;10.63;;;7.03;;
7211;SDS011;3647;48.792;9.802;2023-12-28T06:34:36;7.30;;;6.37;;
7211;SDS011;3647;48.792;9.802;2023-12-28T06:37:03;11.23;;;6.73;;
7211;SDS011;3647;48.792;9.802;2023-12-28T06:39:30;8.70;;;6.47;;
7211;SDS011;3647;48.792;9.802;2023-12-28T06:41:57;9.90;;;6.50;;
7211;SDS011;3647;48.792;9.802;2023-12-28T06:44:25;14.10;;;8.10;;
7211;SDS011;3647;48.792;9.802;2023-12-28T06:46:51;9.57;;;7.03;;
7211;SDS011;3647;48.792;9.802;2023-12-28T06:49:18;10.43;;;7.20;;
7211;SDS011;3647;48.792;9.802;2023-12-28T06:51:45;5.70;;;5.10;;
7211;SDS011;3647;48.792;9.802;2023-12-28T06:54:13;8.23;;;6.43;;
7211;SDS011;3647;48.792;9.802;2023-12-28T06:56:40;7.70;;;6.50;;
7211;SDS011;3647;48.792;9.802;2023-12-28T06:59:07;8.60;;;7.20;;
7211;SDS011;3647;48.792;9.802;2023-12-28T07:01:38;9.90;;;6.93;;
7211;SDS011;3647;48.792;9.802;2023-12-28T07:04:05;10.43;;;6.90;;
7211;SDS011;3647;48.792;9.802;2023-12-28T07:06:32;10.50;;;6.93;;
7211;SDS011;3647;48.792;9.802;2023-12-28T07:08:59;9.07;;;7.07;;
7211;SDS011;3647;48.792;9.802;2023-12-28T07:11:26;9.50;;;7.13;;
7211;SDS011;3647;48.792;9.802;2023-12-28T07:13:52;9.13;;;7.60;;
7211;SDS011;3647;48.792;9.802;2023-12-28T07:16:19;9.80;;;6.53;;
7211;SDS011;3647;48.792;9.802;2023-12-28T07:18:47;9.87;;;7.00;;
7211;SDS011;3647;48.792;9.802;2023-12-28T07:21:14;11.50;;;7.03;;
7211;SDS011;3647;48.792;9.802;2023-12-28T07:23:41;10.43;;;7.63;;
7211;SDS011;3647;48.792;9.802;2023-12-28T07:26:13;9.57;;;7.67;;
7211;SDS011;3647;48.792;9.802;2023-12-28T07:28:40;10.97;;;7.73;;
7211;SDS011;3647;48.792;9.802;2023-12-28T07:31:09;17.60;;;11.87;;
7211;SDS011;3647;48.792;9.802;2023-12-28T07:33:36;16.43;;;11.23;;
7211;SDS011;3647;48.792;9.802;2023-12-28T07:36:05;11.13;;;8.00;;
7211;SDS011;3647;48.792;9.802;2023-12-28T07:38:32;8.70;;;7.40;;
7211;SDS011;3647;48.792;9.802;2023-12-28T07:40:58;7.03;;;6.30;;
7211;SDS011;3647;48.792;9.802;2023-12-28T07:43:25;9.33;;;7.33;;
7211;SDS011;3647;48.792;9.802;2023-12-28T07:45:53;12.00;;;7.30;;
7211;SDS011;3647;48.792;9.802;2023-12-28T07:48:20;10.67;;;8.17;;
7211;SDS011;3647;48.792;9.802;2023-12-28T07:50:46;11.73;;;8.60;;
7211;SDS011;3647;48.792;9.802;2023-12-28T07:53:15;15.43;;;10.37;;
7211;SDS011;3647;48.792;9.802;2023-12-28T07:55:42;12.50;;;9.37;;
7211;SDS011;3647;48.792;9.802;2023-12-28T07:58:09;15.67;;;9.87;;
7211;SDS011;3647;48.792;9.802;2023-12-28T08:00:36;12.97;;;9.07;;
7211;SDS011;3647;48.792;9.802;2023-12-28T08:03:03;15.57;;;8.63;;
7211;SDS011;3647;48.792;9.802;2023-12-28T08:05:30;14.37;;;9.20;;
7211;SDS011;3647;48.792;9.802;2023-12-28T08:07:57;19.13;;;9.33;;
7211;SDS011;3647;48.792;9.802;2023-12-28T08:10:25;14.60;;;9.70;;
7211;SDS011;3647;48.792;9.802;2023-12-28T08:12:52;15.37;;;8.43;;
7211;SDS011;3647;48.792;9.802;2023-12-28T08:15:19;12.27;;;8.47;;
7211;SDS011;3647;48.792;9.802;2023-12-28T08:17:45;11.27;;;8.07;;
7211;SDS011;3647;48.792;9.802;2023-12-28T08:20:12;13.77;;;9.63;;
7211;SDS011;3647;48.792;9.802;2023-12-28T08:22:38;13.77;;;8.50;;
7211;SDS011;3647;48.792;9.802;2023-12-28T08:25:06;12.23;;;9.87;;
7211;SDS011;3647;48.792;9.802;2023-12-28T08:27:36;17.43;;;9.40;;
7211;SDS011;3647;48.792;9.802;2023-12-28T08:30:03;18.67;;;10.03;;
7211;SDS011;3647;48.792;9.802;2023-12-28T08:32:31;16.47;;;10.47;;
7211;SDS011;3647;48.792;9.802;2023-12-28T08:34:58;19.50;;;11.10;;
7211;SDS011;3647;48.792;9.802;2023-12-28T08:37:25;15.40;;;9.57;;
7211;SDS011;3647;48.792;9.802;2023-12-28T08:39:52;11.10;;;8.87;;
7211;SDS011;3647;48.792;9.802;2023-12-28T08:42:20;13.00;;;7.67;;
7211;SDS011;3647;48.792;9.802;2023-12-28T08:44:51;12.50;;;8.90;;
7211;SDS011;3647;48.792;9.802;2023-12-28T08:47:18;16.67;;;10.30;;
7211;SDS011;3647;48.792;9.802;2023-12-28T08:49:44;15.03;;;10.03;;
7211;SDS011;3647;48.792;9.802;2023-12-28T08:52:11;22.17;;;11.20;;
7211;SDS011;3647;48.792;9.802;2023-12-28T08:54:39;27.80;;;14.47;;
7211;SDS011;3647;48.792;9.802;2023-12-28T08:57:06;29.53;;;14.47;;
7211;SDS011;3647;48.792;9.802;2023-12-28T08:59:35;27.03;;;16.60;;
7211;SDS011;3647;48.792;9.802;2023-12-28T09:02:03;28.80;;;14.73;;
7211;SDS011;3647;48.792;9.802;2023-12-28T09:04:30;27.23;;;13.33;;
7211;SDS011;3647;48.792;9.802;2023-12-28T09:06:57;21.80;;;13.67;;
7211;SDS011;3647;48.792;9.802;2023-12-28T09:09:24;19.77;;;12.37;;
7211;SDS011;3647;48.792;9.802;2023-12-28T09:11:50;17.37;;;11.73;;
7211;SDS011;3647;48.792;9.802;2023-12-28T09:14:17;21.27;;;12.63;;
7211;SDS011;3647;48.792;9.802;2023-12-28T09:16:45;19.17;;;11.97;;
7211;SDS011;3647;48.792;9.802;2023-12-28T09:19:14;19.13;;;11.83;;
7211;SDS011;3647;48.792;9.802;2023-12-28T09:21:40;18.67;;;11.53;;
7211;SDS011;3647;48.792;9.802;2023-12-28T09:24:07;22.37;;;13.33;;
7211;SDS011;3647;48.792;9.802;2023-12-28T09:26:34;18.13;;;11.63;;
7211;SDS011;3647;48.792;9.802;2023-12-28T09:29:01;15.77;;;11.13;;
7211;SDS011;3647;48.792;9.802;2023-12-28T09:31:28;13.93;;;9.33;;
7211;SDS011;3647;48.792;9.802;2023-12-28T09:33:55;18.47;;;11.30;;
7211;SDS011;3647;48.792;9.802;2023-12-28T09:36:23;18.70;;;12.10;;
7211;SDS011;3647;48.792;9.802;2023-12-28T09:38:50;17.13;;;10.73;;
7211;SDS011;3647;48.792;9.802;2023-12-28T09:41:17;15.50;;;10.83;;
7211;SDS011;3647;48.792;9.802;2023-12-28T09:43:52;17.07;;;11.47;;
7211;SDS011;3647;48.792;9.802;2023-12-28T09:46:20;16.53;;;10.07;;
7211;SDS011;3647;48.792;9.802;2023-12-28T09:48:47;11.80;;;9.80;;
7211;SDS011;3647;48.792;9.802;2023-12-28T09:51:15;16.90;;;10.13;;
7211;SDS011;3647;48.792;9.802;2023-12-28T09:53:44;18.03;;;11.27;;
7211;SDS011;3647;48.792;9.802;2023-12-28T09:56:11;14.13;;;9.87;;
7211;SDS011;3647;48.792;9.802;2023-12-28T09:58:39;17.20;;;11.33;;
7211;SDS011;3647;48.792;9.802;2023-12-28T10:01:06;15.30;;;9.83;;
7211;SDS011;3647;48.792;9.802;2023-12-28T10:03:35;14.43;;;9.23;;
7211;SDS011;3647;48.792;9.802;2023-12-28T10:06:02;15.77;;;9.63;;
7211;SDS011;3647;48.792;9.802;2023-12-28T10:08:29;15.37;;;8.77;;
7211;SDS011;3647;48.792;9.802;2023-12-28T10:10:57;15.03;;;9.50;;
7211;SDS011;3647;48.792;9.802;2023-12-28T10:13:26;15.47;;;9.33;;
7211;SDS011;3647;48.792;9.802;2023-12-28T10:15:52;16.37;;;10.00;;
7211;SDS011;3647;48.792;9.802;2023-12-28T10:18:23;14.07;;;9.77;;
7211;SDS011;3647;48.792;9.802;2023-12-28T10:20:50;18.73;;;11.07;;
7211;SDS011;3647;48.792;9.802;2023-12-28T10:23:17;18.00;;;10.77;;
7211;SDS011;3647;48.792;9.802;2023-12-28T10:25:44;15.87;;;9.63;;
7211;SDS011;3647;48.792;9.802;2023-12-28T10:28:12;20.43;;;10.37;;
7211;SDS011;3647;48.792;9.802;2023-12-28T10:30:40;19.40;;;10.50;;
7211;SDS011;3647;48.792;9.802;2023-12-28T10:33:07;17.23;;;9.60;;
7211;SDS011;3647;48.792;9.802;2023-12-28T10:35:34;19.13;;;10.70;;
7211;SDS011;3647;48.792;9.802;2023-12-28T10:38:01;21.20;;;10.57;;
7211;SDS011;3647;48.792;9.802;2023-12-28T10:40:28;20.43;;;11.90;;
7211;SDS011;3647;48.792;9.802;2023-12-28T10:42:57;16.70;;;10.10;;
7211;SDS011;3647;48.792;9.802;2023-12-28T10:45:28;18.77;;;11.63;;
7211;SDS011;3647;48.792;9.802;2023-12-28T10:48:00;22.50;;;12.20;;
7211;SDS011;3647;48.792;9.802;2023-12-28T10:50:34;22.13;;;13.00;;
7211;SDS011;3647;48.792;9.802;2023-12-28T10:53:07;18.53;;;12.23;;
7211;SDS011;3647;48.792;9.802;2023-12-28T10:56:00;24.37;;;13.23;;
7211;SDS011;3647;48.792;9.802;2023-12-28T10:58:38;25.60;;;14.20;;
7211;SDS011;3647;48.792;9.802;2023-12-28T11:01:14;24.07;;;12.80;;
7211;SDS011;3647;48.792;9.802;2023-12-28T11:03:48;25.07;;;14.03;;
7211;SDS011;3647;48.792;9.802;2023-12-28T11:06:22;26.13;;;13.57;;
7211;SDS011;3647;48.792;9.802;2023-12-28T11:08:51;26.37;;;13.47;;
7211;SDS011;3647;48.792;9.802;2023-12-28T11:11:19;25.13;;;13.83;;
7211;SDS011;3647;48.792;9.802;2023-12-28T11:13:48;19.50;;;11.37;;
7211;SDS011;3647;48.792;9.802;2023-12-28T11:16:18;19.57;;;13.27;;
7211;SDS011;3647;48.792;9.802;2023-12-28T11:18:44;22.67;;;12.93;;
7211;SDS011;3647;48.792;9.802;2023-12-28T11:21:12;21.90;;;12.53;;
7211;SDS011;3647;48.792;9.802;2023-12-28T11:23:39;24.63;;;12.43;;
7211;SDS011;3647;48.792;9.802;2023-12-28T11:26:15;18.63;;;11.90;;
7211;SDS011;3647;48.792;9.802;2023-12-28T11:28:43;19.43;;;11.60;;
7211;SDS011;3647;48.792;9.802;2023-12-28T11:31:10;18.90;;;12.87;;
7211;SDS011;3647;48.792;9.802;2023-12-28T11:33:44;20.00;;;12.20;;
7211;SDS011;3647;48.792;9.802;2023-12-28T11:36:12;17.30;;;10.43;;
7211;SDS011;3647;48.792;9.802;2023-12-28T11:38:48;14.73;;;9.47;;
7211;SDS011;3647;48.792;9.802;2023-12-28T11:41:16;11.03;;;8.17;;
7211;SDS011;3647;48.792;9.802;2023-12-28T11:43:51;14.57;;;8.17;;
7211;SDS011;3647;48.792;9.802;2023-12-28T11:46:18;15.43;;;8.63;;
7211;SDS011;3647;48.792;9.802;2023-12-28T11:48:47;11.70;;;8.27;;
7211;SDS011;3647;48.792;9.802;2023-12-28T11:51:14;10.80;;;7.80;;
7211;SDS011;3647;48.792;9.802;2023-12-28T11:53:43;11.10;;;6.63;;
7211;SDS011;3647;48.792;9.802;2023-12-28T11:56:14;9.67;;;6.50;;
7211;SDS011;3647;48.792;9.802;2023-12-28T11:58:41;7.70;;;6.17;;
7211;SDS011;3647;48.792;9.802;2023-12-28T12:01:11;9.83;;;6.73;;
7211;SDS011;3647;48.792;9.802;2023-12-28T12:03:38;10.13;;;6.03;;
7211;SDS011;3647;48.792;9.802;2023-12-28T12:06:06;5.70;;;4.43;;
7211;SDS011;3647;48.792;9.802;2023-12-28T12:08:33;3.57;;;3.27;;
7211;SDS011;3647;48.792;9.802;2023-12-28T12:11:00;5.37;;;3.20;;
7211;SDS011;3647;48.792;9.802;2023-12-28T12:13:28;3.70;;;2.90;;
7211;SDS011;3647;48.792;9.802;2023-12-28T12:15:55;6.77;;;2.53;;
7211;SDS011;3647;48.792;9.802;2023-12-28T12:18:22;2.60;;;2.03;;
7211;SDS011;3647;48.792;9.802;2023-12-28T12:20:49;2.57;;;2.30;;
7211;SDS011;3647;48.792;9.802;2023-12-28T12:23:18;2.20;;;2.10;;
7211;SDS011;3647;48.792;9.802;2023-12-28T12:25:45;2.63;;;2.13;;
7211;SDS011;3647;48.792;9.802;2023-12-28T12:28:12;1.70;;;1.60;;
7211;SDS011;3647;48.792;9.802;2023-12-28T12:30:40;2.43;;;2.10;;
7211;SDS011;3647;48.792;9.802;2023-12-28T12:33:16;2.03;;;1.83;;
7211;SDS011;3647;48.792;9.802;2023-12-28T12:35:43;2.37;;;2.17;;
7211;SDS011;3647;48.792;9.802;2023-12-28T12:38:09;2.53;;;2.07;;
7211;SDS011;3647;48.792;9.802;2023-12-28T12:40:41;2.30;;;2.10;;
7211;SDS011;3647;48.792;9.802;2023-12-28T12:43:09;2.37;;;1.80;;
7211;SDS011;3647;48.792;9.802;2023-12-28T12:45:36;3.50;;;2.03;;
7211;SDS011;3647;48.792;9.802;2023-12-28T12:48:03;4.80;;;2.13;;
7211;SDS011;3647;48.792;9.802;2023-12-28T12:50:31;2.17;;;1.83;;
7211;SDS011;3647;48.792;9.802;2023-12-28T12:52:59;2.77;;;2.53;;
7211;SDS011;3647;48.792;9.802;2023-12-28T12:55:26;2.83;;;2.60;;
7211;SDS011;3647;48.792;9.802;2023-12-28T12:57:54;3.20;;;2.07;;
7211;SDS011;3647;48.792;9.802;2023-12-28T13:00:22;3.57;;;2.00;;
7211;SDS011;3647;48.792;9.802;2023-12-28T13:02:49;2.30;;;2.20;;
7211;SDS011;3647;48.792;9.802;2023-12-28T13:05:18;2.17;;;2.07;;
7211;SDS011;3647;48.792;9.802;2023-12-28T13:07:45;4.20;;;2.60;;
7211;SDS011;3647;48.792;9.802;2023-12-28T13:10:12;3.67;;;2.43;;
7211;SDS011;3647;48.792;9.802;2023-12-28T13:12:39;2.83;;;2.60;;
7211;SDS011;3647;48.792;9.802;2023-12-28T13:15:08;2.70;;;2.50;;
7211;SDS011;3647;48.792;9.802;2023-12-28T13:17:35;3.77;;;2.93;;
7211;SDS011;3647;48.792;9.802;2023-12-28T13:20:02;3.20;;;2.87;;
7211;SDS011;3647;48.792;9.802;2023-12-28T13:22:30;4.43;;;2.50;;
7211;SDS011;3647;48.792;9.802;2023-12-28T13:24:57;3.07;;;2.77;;
7211;SDS011;3647;48.792;9.802;2023-12-28T13:27:24;3.57;;;2.30;;
7211;SDS011;3647;48.792;9.802;2023-12-28T13:29:52;2.63;;;2.43;;
7211;SDS011;3647;48.792;9.802;2023-12-28T13:32:20;3.60;;;2.40;;
7211;SDS011;3647;48.792;9.802;2023-12-28T13:34:48;2.50;;;1.90;;
7211;SDS011;3647;48.792;9.802;2023-12-28T13:37:15;2.73;;;2.40;;
7211;SDS011;3647;48.792;9.802;2023-12-28T13:39:42;2.40;;;2.20;;
7211;SDS011;3647;48.792;9.802;2023-12-28T13:42:09;2.30;;;2.10;;
7211;SDS011;3647;48.792;9.802;2023-12-28T13:44:36;2.50;;;2.30;;
7211;SDS011;3647;48.792;9.802;2023-12-28T13:47:03;2.50;;;2.30;;
7211;SDS011;3647;48.792;9.802;2023-12-28T13:49:33;2.23;;;2.00;;
7211;SDS011;3647;48.792;9.802;2023-12-28T13:52:00;2.63;;;2.10;;
7211;SDS011;3647;48.792;9.802;2023-12-28T13:54:27;3.07;;;2.77;;
7211;SDS011;3647;48.792;9.802;2023-12-28T13:56:54;2.97;;;2.67;;
7211;SDS011;3647;48.792;9.802;2023-12-28T13:59:24;2.67;;;2.47;;
7211;SDS011;3647;48.792;9.802;2023-12-28T14:01:51;6.63;;;3.20;;
7211;SDS011;3647;48.792;9.802;2023-12-28T14:04:18;3.00;;;2.40;;
7211;SDS011;3647;48.792;9.802;2023-12-28T14:06:46;3.47;;;2.80;;
7211;SDS011;3647;48.792;9.802;2023-12-28T14:09:13;4.93;;;3.00;;
7211;SDS011;3647;48.792;9.802;2023-12-28T14:11:44;3.40;;;2.90;;
7211;SDS011;3647;48.792;9.802;2023-12-28T14:14:11;5.57;;;3.60;;
7211;SDS011;3647;48.792;9.802;2023-12-28T14:16:38;3.80;;;2.90;;
7211;SDS011;3647;48.792;9.802;2023-12-28T14:19:05;3.47;;;3.13;;
7211;SDS011;3647;48.792;9.802;2023-12-28T14:21:34;6.27;;;4.83;;
7211;SDS011;3647;48.792;9.802;2023-12-28T14:24:03;4.93;;;3.90;;
7211;SDS011;3647;48.792;9.802;2023-12-28T14:26:31;7.13;;;5.33;;
7211;SDS011;3647;48.792;9.802;2023-12-28T14:28:59;5.37;;;4.77;;
7211;SDS011;3647;48.792;9.802;2023-12-28T14:31:29;7.40;;;5.47;;
7211;SDS011;3647;48.792;9.802;2023-12-28T14:33:56;5.47;;;4.50;;
7211;SDS011;3647;48.792;9.802;2023-12-28T14:36:25;8.73;;;4.87;;
7211;SDS011;3647;48.792;9.802;2023-12-28T14:38:57;8.03;;;5.43;;
7211;SDS011;3647;48.792;9.802;2023-12-28T14:41:25;6.70;;;4.57;;
7211;SDS011;3647;48.792;9.802;2023-12-28T14:43:52;7.17;;;4.77;;
7211;SDS011;3647;48.792;9.802;2023-12-28T14:46:19;6.90;;;5.00;;
7211;SDS011;3647;48.792;9.802;2023-12-28T14:48:46;6.60;;;4.60;;
7211;SDS011;3647;48.792;9.802;2023-12-28T14:51:13;6.27;;;4.70;;
7211;SDS011;3647;48.792;9.802;2023-12-28T14:53:40;5.23;;;4.53;;
7211;SDS011;3647;48.792;9.802;2023-12-28T14:56:06;6.77;;;4.33;;
7211;SDS011;3647;48.792;9.802;2023-12-28T14:58:35;8.27;;;5.20;;
7211;SDS011;3647;48.792;9.802;2023-12-28T15:01:01;7.13;;;5.07;;
7211;SDS011;3647;48.792;9.802;2023-12-28T15:03:28;8.63;;;5.07;;
7211;SDS011;3647;48.792;9.802;2023-12-28T15:05:55;9.67;;;5.53;;
7211;SDS011;3647;48.792;9.802;2023-12-28T15:08:22;5.67;;;4.43;;
7211;SDS011;3647;48.792;9.802;2023-12-28T15:10:50;7.00;;;4.70;;
7211;SDS011;3647;48.792;9.802;2023-12-28T15:13:18;6.17;;;5.07;;
7211;SDS011;3647;48.792;9.802;2023-12-28T15:15:46;7.23;;;5.30;;
7211;SDS011;3647;48.792;9.802;2023-12-28T15:18:14;8.47;;;5.70;;
7211;SDS011;3647;48.792;9.802;2023-12-28T15:20:43;7.60;;;4.43;;
7211;SDS011;3647;48.792;9.802;2023-12-28T15:23:10;6.07;;;4.73;;
7211;SDS011;3647;48.792;9.802;2023-12-28T15:25:37;6.00;;;4.30;;
7211;SDS011;3647;48.792;9.802;2023-12-28T15:28:05;4.87;;;3.90;;
7211;SDS011;3647;48.792;9.802;2023-12-28T15:30:32;5.87;;;4.60;;
7211;SDS011;3647;48.792;9.802;2023-12-28T15:33:01;4.93;;;4.43;;
7211;SDS011;3647;48.792;9.802;2023-12-28T15:35:28;10.30;;;5.00;;
7211;SDS011;3647;48.792;9.802;2023-12-28T15:37:55;7.10;;;5.67;;
7211;SDS011;3647;48.792;9.802;2023-12-28T15:40:21;10.13;;;6.43;;
7211;SDS011;3647;48.792;9.802;2023-12-28T15:42:49;6.63;;;5.13;;
7211;SDS011;3647;48.792;9.802;2023-12-28T15:45:16;6.63;;;5.13;;
7211;SDS011;3647;48.792;9.802;2023-12-28T15:47:43;6.27;;;4.63;;
7211;SDS011;3647;48.792;9.802;2023-12-28T15:50:11;6.23;;;4.60;;
7211;SDS011;3647;48.792;9.802;2023-12-28T15:52:39;7.20;;;5.03;;
7211;SDS011;3647;48.792;9.802;2023-12-28T15:55:06;5.47;;;4.73;;
7211;SDS011;3647;48.792;9.802;2023-12-28T15:57:33;6.10;;;4.43;;
7211;SDS011;3647;48.792;9.802;2023-12-28T16:00:00;8.10;;;4.90;;
7211;SDS011;3647;48.792;9.802;2023-12-28T16:02:27;5.37;;;4.47;;
7211;SDS011;3647;48.792;9.802;2023-12-28T16:04:55;8.03;;;5.27;;
7211;SDS011;3647;48.792;9.802;2023-12-28T16:07:23;6.50;;;4.40;;
7211;SDS011;3647;48.792;9.802;2023-12-28T16:09:50;5.57;;;4.13;;
7211;SDS011;3647;48.792;9.802;2023-12-28T16:12:17;5.60;;;4.83;;
7211;SDS011;3647;48.792;9.802;2023-12-28T16:14:44;13.57;;;9.17;;
7211;SDS011;3647;48.792;9.802;2023-12-28T16:17:12;9.90;;;6.37;;
7211;SDS011;3647;48.792;9.802;2023-12-28T16:19:39;6.40;;;5.17;;
7211;SDS011;3647;48.792;9.802;2023-12-28T16:22:06;8.10;;;6.07;;
7211;SDS011;3647;48.792;9.802;2023-12-28T16:24:35;7.10;;;5.93;;
7211;SDS011;3647;48.792;9.802;2023-12-28T16:27:02;7.10;;;5.57;;
7211;SDS011;3647;48.792;9.802;2023-12-28T16:29:29;8.60;;;5.50;;
7211;SDS011;3647;48.792;9.802;2023-12-28T16:31:56;9.53;;;6.40;;
7211;SDS011;3647;48.792;9.802;2023-12-28T16:34:25;8.27;;;6.67;;
7211;SDS011;3647;48.792;9.802;2023-12-28T16:36:53;7.27;;;5.67;;
7211;SDS011;3647;48.792;9.802;2023-12-28T16:39:21;8.73;;;6.87;;
7211;SDS011;3647;48.792;9.802;2023-12-28T16:41:49;6.90;;;5.87;;
7211;SDS011;3647;48.792;9.802;2023-12-28T16:44:16;14.37;;;6.70;;
7211;SDS011;3647;48.792;9.802;2023-12-28T16:46:43;9.77;;;6.67;;
7211;SDS011;3647;48.792;9.802;2023-12-28T16:49:12;8.90;;;5.53;;
7211;SDS011;3647;48.792;9.802;2023-12-28T16:51:40;8.13;;;5.57;;
7211;SDS011;3647;48.792;9.802;2023-12-28T16:54:06;6.03;;;5.17;;
7211;SDS011;3647;48.792;9.802;2023-12-28T16:56:33;7.70;;;5.43;;
7211;SDS011;3647;48.792;9.802;2023-12-28T16:59:03;9.90;;;6.30;;
7211;SDS011;3647;48.792;9.802;2023-12-28T17:01:30;8.00;;;6.03;;
7211;SDS011;3647;48.792;9.802;2023-12-28T17:03:58;10.00;;;5.87;;
7211;SDS011;3647;48.792;9.802;2023-12-28T17:06:25;8.43;;;5.90;;
7211;SDS011;3647;48.792;9.802;2023-12-28T17:08:52;7.73;;;5.60;;
7211;SDS011;3647;48.792;9.802;2023-12-28T17:11:19;7.97;;;5.70;;
7211;SDS011;3647;48.792;9.802;2023-12-28T17:13:46;9.40;;;6.03;;
7211;SDS011;3647;48.792;9.802;2023-12-28T17:16:15;8.10;;;6.67;;
7211;SDS011;3647;48.792;9.802;2023-12-28T17:18:43;6.40;;;5.00;;
7211;SDS011;3647;48.792;9.802;2023-12-28T17:21:11;6.50;;;5.30;;
7211;SDS011;3647;48.792;9.802;2023-12-28T17:23:41;7.57;;;4.87;;
7211;SDS011;3647;48.792;9.802;2023-12-28T17:26:15;8.90;;;5.57;;
7211;SDS011;3647;48.792;9.802;2023-12-28T17:28:51;7.67;;;5.43;;
7211;SDS011;3647;48.792;9.802;2023-12-28T17:31:29;6.37;;;4.93;;
7211;SDS011;3647;48.792;9.802;2023-12-28T17:33:58;5.17;;;4.60;;
7211;SDS011;3647;48.792;9.802;2023-12-28T17:36:25;9.00;;;5.50;;
7211;SDS011;3647;48.792;9.802;2023-12-28T17:38:55;9.57;;;5.53;;
7211;SDS011;3647;48.792;9.802;2023-12-28T17:41:26;14.97;;;6.90;;
7211;SDS011;3647;48.792;9.802;2023-12-28T17:43:56;14.00;;;8.50;;
7211;SDS011;3647;48.792;9.802;2023-12-28T17:46:28;23.70;;;14.03;;
7211;SDS011;3647;48.792;9.802;2023-12-28T17:49:03;8.53;;;6.50;;
7211;SDS011;3647;48.792;9.802;2023-12-28T17:51:35;9.17;;;6.53;;
7211;SDS011;3647;48.792;9.802;2023-12-28T17:54:02;9.07;;;5.00;;
7211;SDS011;3647;48.792;9.802;2023-12-28T17:56:29;6.50;;;5.20;;
7211;SDS011;3647;48.792;9.802;2023-12-28T17:58:56;12.23;;;7.13;;
7211;SDS011;3647;48.792;9.802;2023-12-28T18:01:24;10.77;;;6.63;;
7211;SDS011;3647;48.792;9.802;2023-12-28T18:03:52;5.53;;;4.93;;
7211;SDS011;3647;48.792;9.802;2023-12-28T18:06:19;8.03;;;5.93;;
7211;SDS011;3647;48.792;9.802;2023-12-28T18:08:46;8.73;;;5.93;;
7211;SDS011;3647;48.792;9.802;2023-12-28T18:11:12;13.20;;;6.60;;
7211;SDS011;3647;48.792;9.802;2023-12-28T18:13:39;11.27;;;7.77;;
7211;SDS011;3647;48.792;9.802;2023-12-28T18:16:06;12.03;;;8.47;;
7211;SDS011;3647;48.792;9.802;2023-12-28T18:18:33;11.50;;;7.03;;
7211;SDS011;3647;48.792;9.802;2023-12-28T18:21:01;8.70;;;7.30;;
7211;SDS011;3647;48.792;9.802;2023-12-28T18:23:28;9.20;;;6.60;;
7211;SDS011;3647;48.792;9.802;2023-12-28T18:25:55;9.47;;;6.20;;
7211;SDS011;3647;48.792;9.802;2023-12-28T18:28:22;9.13;;;7.33;;
7211;SDS011;3647;48.792;9.802;2023-12-28T18:30:48;14.00;;;8.50;;
7211;SDS011;3647;48.792;9.802;2023-12-28T18:33:15;13.90;;;8.20;;
7211;SDS011;3647;48.792;9.802;2023-12-28T18:35:45;9.53;;;5.63;;
7211;SDS011;3647;48.792;9.802;2023-12-28T18:38:13;7.20;;;5.27;;
7211;SDS011;3647;48.792;9.802;2023-12-28T18:40:40;6.77;;;4.70;;
7211;SDS011;3647;48.792;9.802;2023-12-28T18:43:11;7.77;;;5.60;;
7211;SDS011;3647;48.792;9.802;2023-12-28T18:45:39;5.10;;;4.23;;
7211;SDS011;3647;48.792;9.802;2023-12-28T18:48:07;5.03;;;4.43;;
7211;SDS011;3647;48.792;9.802;2023-12-28T18:50:37;5.80;;;4.13;;
7211;SDS011;3647;48.792;9.802;2023-12-28T18:53:04;5.77;;;4.30;;
7211;SDS011;3647;48.792;9.802;2023-12-28T18:55:33;6.17;;;4.67;;
7211;SDS011;3647;48.792;9.802;2023-12-28T18:58:02;4.57;;;4.17;;
7211;SDS011;3647;48.792;9.802;2023-12-28T19:00:31;6.07;;;4.30;;
7211;SDS011;3647;48.792;9.802;2023-12-28T19:02:59;5.10;;;4.27;;
7211;SDS011;3647;48.792;9.802;2023-12-28T19:05:26;4.83;;;4.33;;
7211;SDS011;3647;48.792;9.802;2023-12-28T19:07:52;7.03;;;4.53;;
7211;SDS011;3647;48.792;9.802;2023-12-28T19:10:19;4.77;;;3.90;;
7211;SDS011;3647;48.792;9.802;2023-12-28T19:12:48;5.57;;;4.07;;
7211;SDS011;3647;48.792;9.802;2023-12-28T19:15:14;5.27;;;4.30;;
7211;SDS011;3647;48.792;9.802;2023-12-28T19:17:41;7.10;;;4.60;;
7211;SDS011;3647;48.792;9.802;2023-12-28T19:20:09;5.53;;;4.03;;
7211;SDS011;3647;48.792;9.802;2023-12-28T19:22:38;7.23;;;4.40;;
7211;SDS011;3647;48.792;9.802;2023-12-28T19:25:05;5.33;;;4.30;;
7211;SDS011;3647;48.792;9.802;2023-12-28T19:27:32;4.77;;;4.30;;
7211;SDS011;3647;48.792;9.802;2023-12-28T19:30:00;7.10;;;5.00;;
7211;SDS011;3647;48.792;9.802;2023-12-28T19:32:27;8.63;;;4.73;;
7211;SDS011;3647;48.792;9.802;2023-12-28T19:34:55;8.77;;;5.03;;
7211;SDS011;3647;48.792;9.802;2023-12-28T19:37:21;8.03;;;5.23;;
7211;SDS011;3647;48.792;9.802;2023-12-28T19:39:48;8.00;;;5.17;;
7211;SDS011;3647;48.792;9.802;2023-12-28T19:42:15;12.73;;;6.77;;
7211;SDS011;3647;48.792;9.802;2023-12-28T19:44:42;11.93;;;6.00;;
7211;SDS011;3647;48.792;9.802;2023-12-28T19:47:10;13.63;;;7.87;;
7211;SDS011;3647;48.792;9.802;2023-12-28T19:49:37;8.27;;;5.93;;
7211;SDS011;3647;48.792;9.802;2023-12-28T19:52:04;7.30;;;5.77;;
7211;SDS011;3647;48.792;9.802;2023-12-28T19:54:32;7.40;;;5.30;;
7211;SDS011;3647;48.792;9.802;2023-12-28T19:56:59;5.00;;;4.23;;
7211;SDS011;3647;48.792;9.802;2023-12-28T19:59:26;6.10;;;4.30;;
7211;SDS011;3647;48.792;9.802;2023-12-28T20:01:53;4.20;;;3.77;;
7211;SDS011;3647;48.792;9.802;2023-12-28T20:04:22;4.13;;;3.80;;
7211;SDS011;3647;48.792;9.802;2023-12-28T20:06:49;4.20;;;3.70;;
7211;SDS011;3647;48.792;9.802;2023-12-28T20:09:16;4.70;;;4.13;;
7211;SDS011;3647;48.792;9.802;2023-12-28T20:11:43;5.37;;;4.17;;
7211;SDS011;3647;48.792;9.802;2023-12-28T20:14:12;4.20;;;3.70;;
7211;SDS011;3647;48.792;9.802;2023-12-28T20:16:39;4.80;;;3.70;;
7211;SDS011;3647;48.792;9.802;2023-12-28T20:19:07;4.90;;;3.93;;
7211;SDS011;3647;48.792;9.802;2023-12-28T20:21:35;4.17;;;3.77;;